Time;durP1;ratioP1;P1;durP2;ratioP2;P2;SDS_P1;SDS_P2;PMS_P1;PMS_P2;Temp;Humidity;BMP_temperature;BMP_pressure;BME280_temperature;BME280_humidity;BME280_pressure;Samples;Min_cycle;Max_cycle;Signal;HPM_P1;HPM_P2
2021/10/26 00:02:10;;;;;;;6.65;2.78;;;18.40;99.90;;;;;;5116523;27;20074;-54
2021/10/26 00:04:38;;;;;;;6.38;2.72;;;18.40;99.90;;;;;;5115431;28;20048;-54
2021/10/26 00:07:06;;;;;;;8.60;3.20;;;18.40;99.90;;;;;;5115569;28;20067;-55
2021/10/26 00:09:33;;;;;;;9.85;3.72;;;18.50;99.90;;;;;;5115484;28;20043;-55
2021/10/26 00:12:02;;;;;;;7.18;3.17;;;18.50;99.90;;;;;;5115362;28;20044;-55
2021/10/26 00:14:30;;;;;;;7.32;4.22;;;18.50;99.90;;;;;;5115240;28;20065;-54
2021/10/26 00:16:58;;;;;;;9.27;3.17;;;18.50;99.90;;;;;;5098724;28;20097;-53
2021/10/26 00:19:25;;;;;;;8.07;3.35;;;18.50;99.90;;;;;;5114961;28;20062;-53
2021/10/26 00:21:53;;;;;;;8.70;3.35;;;18.50;99.90;;;;;;5114938;28;20052;-53
2021/10/26 00:24:20;;;;;;;10.45;4.65;;;18.50;99.90;;;;;;5115024;28;20059;-54
2021/10/26 00:26:49;;;;;;;8.80;4.20;;;18.40;99.90;;;;;;5114879;28;20409;-54
2021/10/26 00:29:21;;;;;;;9.63;3.92;;;18.40;99.90;;;;;;5098472;28;20047;-54
2021/10/26 00:31:49;;;;;;;7.85;3.50;;;18.50;99.90;;;;;;5098093;28;20043;-53
2021/10/26 00:34:18;;;;;;;8.27;4.18;;;18.50;99.90;;;;;;5097893;28;20398;-53
2021/10/26 00:36:46;;;;;;;8.13;3.03;;;18.50;99.90;;;;;;5097950;28;20135;-53
2021/10/26 00:39:14;;;;;;;7.88;3.67;;;18.50;99.90;;;;;;5097839;28;20587;-55
2021/10/26 00:41:42;;;;;;;8.18;3.53;;;18.50;99.90;;;;;;5114628;28;20118;-54
2021/10/26 00:44:10;;;;;;;10.23;4.18;;;18.40;99.90;;;;;;5097762;28;20078;-55
2021/10/26 00:46:38;;;;;;;12.35;4.20;;;18.40;99.90;;;;;;5080768;28;20467;-54
2021/10/26 00:49:11;;;;;;;10.10;3.42;;;18.40;99.90;;;;;;5097499;28;20050;-54
2021/10/26 00:51:41;;;;;;;6.45;3.08;;;18.40;99.90;;;;;;5097742;28;20142;-54
2021/10/26 00:54:09;;;;;;;6.47;2.83;;;18.40;99.90;;;;;;5114329;28;20039;-54
2021/10/26 00:56:43;;;;;;;6.50;3.28;;;18.40;99.90;;;;;;5081673;28;20097;-53
2021/10/26 00:59:11;;;;;;;7.20;3.58;;;18.40;99.90;;;;;;5097609;28;20048;-54
2021/10/26 01:01:44;;;;;;;7.07;3.10;;;18.40;99.90;;;;;;5081625;28;20055;-53
2021/10/26 01:04:13;;;;;;;13.38;3.97;;;18.40;99.90;;;;;;5097366;28;20130;-53
2021/10/26 01:06:42;;;;;;;8.02;3.72;;;18.40;99.90;;;;;;5080496;28;20047;-55
2021/10/26 01:09:10;;;;;;;14.05;4.70;;;18.30;99.90;;;;;;5114324;28;20040;-53
2021/10/26 01:11:38;;;;;;;6.95;3.58;;;18.40;99.90;;;;;;5097418;28;20032;-54
2021/10/26 01:14:05;;;;;;;8.23;3.28;;;18.30;99.90;;;;;;5097294;28;20085;-55
2021/10/26 01:16:34;;;;;;;10.60;4.13;;;18.30;99.90;;;;;;5080399;28;20093;-53
2021/10/26 01:19:02;;;;;;;6.05;3.10;;;18.30;99.90;;;;;;5113808;28;20063;-54
2021/10/26 01:21:30;;;;;;;7.85;3.50;;;18.30;99.90;;;;;;5114035;28;20135;-54
2021/10/26 01:23:58;;;;;;;9.02;3.53;;;18.30;99.90;;;;;;5097176;28;20481;-52
2021/10/26 01:26:26;;;;;;;6.15;3.80;;;18.30;99.90;;;;;;5114947;28;20048;-55
2021/10/26 01:28:54;;;;;;;10.20;3.22;;;18.30;99.90;;;;;;5097073;28;20050;-54
2021/10/26 01:31:22;;;;;;;6.85;2.63;;;18.30;99.90;;;;;;5079999;28;20520;-52
2021/10/26 01:34:00;;;;;;;7.15;3.00;;;18.30;99.90;;;;;;5098341;28;20044;-53
2021/10/26 01:36:31;;;;;;;7.13;2.83;;;18.30;99.90;;;;;;5113546;28;20528;-55
2021/10/26 01:38:59;;;;;;;6.03;2.70;;;18.30;99.90;;;;;;5113542;28;20050;-54
2021/10/26 01:41:30;;;;;;;9.13;2.97;;;18.30;99.90;;;;;;5096606;28;20512;-53
2021/10/26 01:43:58;;;;;;;6.53;2.90;;;18.30;99.90;;;;;;5113392;28;20047;-53
2021/10/26 01:46:26;;;;;;;8.90;3.28;;;18.30;99.90;;;;;;5096848;28;20089;-53
2021/10/26 01:48:54;;;;;;;6.82;3.47;;;18.30;99.90;;;;;;5113610;28;20048;-55
2021/10/26 01:51:22;;;;;;;8.95;3.25;;;18.30;99.90;;;;;;5113394;28;20047;-54
2021/10/26 01:53:49;;;;;;;14.30;4.03;;;18.30;99.90;;;;;;5113254;28;20081;-54
2021/10/26 01:56:18;;;;;;;5.68;3.65;;;18.30;99.90;;;;;;5112781;28;20520;-54
2021/10/26 01:59:02;;;;;;;6.80;2.65;;;18.30;99.90;;;;;;5098639;28;20354;-52
2021/10/26 02:01:39;;;;;;;6.35;2.90;;;18.30;99.90;;;;;;5097728;28;20156;-55
2021/10/26 02:04:10;;;;;;;7.15;3.38;;;18.30;99.90;;;;;;5096846;28;20067;-55
2021/10/26 02:06:37;;;;;;;6.32;2.92;;;18.20;99.90;;;;;;5114109;28;20047;-52
2021/10/26 02:09:05;;;;;;;8.07;2.78;;;18.20;99.90;;;;;;5095871;28;20470;-54
2021/10/26 02:11:36;;;;;;;5.10;3.17;;;18.20;99.90;;;;;;5079578;28;20501;-54
2021/10/26 02:14:04;;;;;;;6.95;3.22;;;18.20;99.90;;;;;;5079104;28;20047;-53
2021/10/26 02:16:32;;;;;;;5.03;2.42;;;18.20;99.90;;;;;;5095945;28;20035;-53
2021/10/26 02:19:00;;;;;;;7.03;2.67;;;18.10;99.90;;;;;;5112756;28;20043;-55
2021/10/26 02:21:27;;;;;;;5.57;2.85;;;18.10;99.90;;;;;;5095110;28;20536;-55
2021/10/26 02:23:55;;;;;;;7.43;3.10;;;18.10;99.90;;;;;;5113837;28;20044;-53
2021/10/26 02:26:22;;;;;;;5.70;3.05;;;18.10;99.90;;;;;;5112266;28;20044;-54
2021/10/26 02:28:51;;;;;;;5.60;2.80;;;18.10;99.90;;;;;;5095681;28;20040;-54
2021/10/26 02:31:19;;;;;;;10.50;4.63;;;18.00;99.90;;;;;;5095687;28;20131;-54
2021/10/26 02:33:46;;;;;;;5.15;3.20;;;18.00;99.90;;;;;;5112408;28;20490;-55
2021/10/26 02:36:14;;;;;;;5.95;2.75;;;18.00;99.90;;;;;;5112122;28;20142;-52
2021/10/26 02:38:42;;;;;;;9.48;3.65;;;18.00;99.90;;;;;;5112608;28;20077;-54
2021/10/26 02:41:11;;;;;;;6.43;3.30;;;18.00;99.90;;;;;;5096131;28;20051;-53
2021/10/26 02:43:39;;;;;;;6.50;2.80;;;18.00;99.90;;;;;;5095419;28;20051;-51
2021/10/26 02:46:07;;;;;;;6.95;3.15;;;18.00;99.90;;;;;;5062773;28;20048;-54
2021/10/26 02:48:35;;;;;;;7.40;3.30;;;17.90;99.90;;;;;;5095494;28;20466;-55
2021/10/26 02:51:03;;;;;;;5.63;3.38;;;18.00;99.90;;;;;;5079088;28;20050;-55
2021/10/26 02:53:31;;;;;;;4.60;2.85;;;17.90;99.90;;;;;;5079309;28;20098;-54
2021/10/26 02:55:59;;;;;;;6.30;2.80;;;17.90;99.90;;;;;;5112543;28;20051;-53
2021/10/26 02:58:26;;;;;;;6.78;2.53;;;17.90;99.90;;;;;;5113873;28;20056;-55
2021/10/26 03:00:54;;;;;;;14.15;3.75;;;17.90;99.90;;;;;;5112531;28;20055;-55
2021/10/26 03:03:22;;;;;;;8.25;3.00;;;17.90;99.90;;;;;;5095702;28;20108;-55
2021/10/26 03:05:50;;;;;;;6.85;2.65;;;17.90;99.90;;;;;;5095636;28;20132;-55
2021/10/26 03:08:17;;;;;;;7.80;3.30;;;17.80;99.90;;;;;;5114880;28;20040;-54
2021/10/26 03:10:45;;;;;;;15.02;3.22;;;17.80;99.90;;;;;;5099651;28;20496;-54
2021/10/26 03:13:18;;;;;;;7.05;2.78;;;17.80;99.90;;;;;;5067269;28;20055;-55
2021/10/26 03:15:45;;;;;;;9.63;3.15;;;17.80;99.90;;;;;;5117554;28;20493;-55
2021/10/26 03:18:18;;;;;;;4.30;2.40;;;17.80;99.90;;;;;;5116352;28;20516;-55
2021/10/26 03:20:46;;;;;;;7.65;2.70;;;17.80;99.90;;;;;;5082786;28;20485;-53
2021/10/26 03:23:14;;;;;;;8.73;3.85;;;17.80;99.90;;;;;;5116144;28;20039;-54
2021/10/26 03:25:43;;;;;;;6.00;2.83;;;17.80;99.90;;;;;;5098948;28;20051;-55
2021/10/26 03:28:13;;;;;;;10.13;3.00;;;17.80;99.90;;;;;;5099474;28;20035;-55
2021/10/26 03:30:42;;;;;;;7.07;2.63;;;17.80;99.90;;;;;;5099642;28;20148;-55
2021/10/26 03:33:26;;;;;;;4.35;2.90;;;17.80;99.90;;;;;;5101624;28;20074;-53
2021/10/26 03:36:04;;;;;;;7.15;2.95;;;17.80;99.90;;;;;;5099694;28;20055;-53
2021/10/26 03:38:34;;;;;;;4.57;2.58;;;17.80;99.90;;;;;;5098983;28;20070;-56
2021/10/26 03:41:02;;;;;;;4.95;2.58;;;17.80;99.90;;;;;;5082567;28;20043;-55
2021/10/26 03:43:30;;;;;;;5.28;2.42;;;17.80;99.90;;;;;;5115904;28;20035;-54
2021/10/26 03:45:57;;;;;;;6.68;3.17;;;17.80;99.90;;;;;;5098976;28;20040;-54
2021/10/26 03:48:26;;;;;;;4.88;2.47;;;17.80;99.90;;;;;;5116863;28;20164;-55
2021/10/26 03:50:54;;;;;;;7.15;2.83;;;17.80;99.90;;;;;;5115811;28;20047;-55
2021/10/26 03:53:21;;;;;;;4.50;2.58;;;17.80;99.90;;;;;;5116848;28;20047;-55
2021/10/26 03:55:49;;;;;;;5.22;2.30;;;17.80;99.90;;;;;;5082192;28;20036;-55
2021/10/26 03:58:17;;;;;;;3.67;2.38;;;17.80;99.90;;;;;;5098685;28;20520;-52
2021/10/26 04:00:50;;;;;;;5.50;2.95;;;17.80;99.90;;;;;;5082544;28;20177;-55
2021/10/26 04:03:28;;;;;;;7.03;2.85;;;17.80;99.90;;;;;;5116982;28;20051;-55
2021/10/26 04:06:04;;;;;;;6.65;3.20;;;17.80;99.90;;;;;;5098539;28;20043;-52
2021/10/26 04:11:20;;;;;;;7.40;2.55;;;17.70;99.90;;;;;;5115357;28;20107;-55
2021/10/26 04:13:48;;;;;;;7.32;3.33;;;17.70;99.90;;;;;;5115387;28;20059;-54
2021/10/26 04:16:17;;;;;;;7.60;3.50;;;17.70;99.90;;;;;;5115088;28;20054;-55
2021/10/26 04:18:46;;;;;;;5.68;2.50;;;17.70;99.90;;;;;;5115139;28;20452;-53
2021/10/26 04:21:16;;;;;;;10.48;4.65;;;17.70;99.90;;;;;;5098449;28;20038;-54
2021/10/26 04:23:47;;;;;;;5.88;3.20;;;17.60;99.90;;;;;;5115357;28;20390;-55
2021/10/26 04:26:16;;;;;;;7.68;3.08;;;17.70;99.90;;;;;;5081477;28;20044;-55
2021/10/26 04:28:44;;;;;;;7.85;3.28;;;17.60;99.90;;;;;;5098287;28;20074;-56
2021/10/26 04:31:14;;;;;;;8.95;3.10;;;17.70;99.90;;;;;;5081550;28;20388;-56
2021/10/26 04:33:44;;;;;;;9.93;3.90;;;17.60;99.90;;;;;;5098264;28;20036;-55
2021/10/26 04:36:12;;;;;;;5.25;2.75;;;17.70;99.90;;;;;;5097929;28;20055;-53
2021/10/26 04:38:42;;;;;;;5.40;2.65;;;17.60;99.90;;;;;;5098456;28;20439;-55
2021/10/26 04:41:11;;;;;;;7.78;3.58;;;17.60;99.90;;;;;;5114563;28;20040;-55
2021/10/26 04:43:39;;;;;;;7.13;3.15;;;17.60;99.90;;;;;;5081370;28;20039;-52
2021/10/26 04:46:11;;;;;;;9.48;3.30;;;17.50;99.90;;;;;;5098511;28;20075;-55
2021/10/26 04:48:39;;;;;;;8.43;3.50;;;17.60;99.90;;;;;;5097734;28;20048;-55
2021/10/26 04:51:07;;;;;;;5.95;2.40;;;17.60;99.90;;;;;;5097801;28;20097;-55
2021/10/26 04:53:36;;;;;;;8.57;3.03;;;17.60;99.90;;;;;;5081092;28;20500;-54
2021/10/26 04:56:04;;;;;;;6.80;3.00;;;17.50;99.90;;;;;;5097801;28;20055;-53
2021/10/26 04:58:51;;;;;;;5.60;2.38;;;17.50;99.90;;;;;;5114206;28;20043;-55
2021/10/26 05:01:20;;;;;;;6.55;3.03;;;17.50;99.90;;;;;;5114181;28;20410;-53
2021/10/26 05:03:48;;;;;;;5.40;2.50;;;17.50;99.90;;;;;;5080747;28;20101;-55
2021/10/26 05:06:15;;;;;;;5.63;2.85;;;17.50;99.90;;;;;;5097278;28;20047;-55
2021/10/26 05:08:45;;;;;;;7.70;2.85;;;17.50;99.90;;;;;;5097525;28;20043;-53
2021/10/26 05:11:13;;;;;;;7.13;3.25;;;17.50;99.90;;;;;;5080341;28;20151;-55
2021/10/26 05:13:42;;;;;;;7.30;2.83;;;17.50;99.90;;;;;;5080603;28;20047;-55
2021/10/26 05:16:29;;;;;;;8.77;2.40;;;17.50;99.90;;;;;;5115224;28;20039;-55
2021/10/26 05:19:04;;;;;;;7.53;2.42;;;17.50;99.90;;;;;;5113986;28;20465;-56
2021/10/26 05:22:04;;;;;;;7.68;3.20;;;17.50;99.90;;;;;;5058734;28;20058;-55
2021/10/26 05:24:51;;;;;;;11.63;3.42;;;17.50;99.90;;;;;;5114926;28;20466;-55
2021/10/26 05:27:39;;;;;;;6.35;3.35;;;17.50;99.90;;;;;;5085445;28;20104;-51
2021/10/26 05:30:09;;;;;;;6.22;3.05;;;17.50;99.90;;;;;;5096585;28;20043;-53
2021/10/26 05:32:39;;;;;;;5.07;2.60;;;17.50;99.90;;;;;;5096883;28;20127;-54
2021/10/26 05:35:08;;;;;;;7.40;3.28;;;17.50;99.90;;;;;;5113386;28;20047;-55
2021/10/26 05:37:36;;;;;;;11.48;3.28;;;17.50;99.90;;;;;;5096812;28;20058;-54
2021/10/26 05:40:05;;;;;;;7.45;2.83;;;17.50;99.90;;;;;;5113620;28;20044;-53
2021/10/26 05:42:33;;;;;;;5.95;3.25;;;17.50;99.90;;;;;;5113518;28;20039;-54
2021/10/26 05:45:02;;;;;;;6.70;3.33;;;17.60;99.90;;;;;;5114577;28;20048;-55
2021/10/26 05:47:30;;;;;;;5.95;2.92;;;17.60;99.90;;;;;;5079961;28;20055;-52
2021/10/26 05:49:57;;;;;;;9.50;3.33;;;17.50;99.90;;;;;;5096571;28;20044;-55
2021/10/26 05:52:25;;;;;;;5.65;2.55;;;17.60;99.90;;;;;;5114417;28;20032;-55
2021/10/26 05:54:53;;;;;;;5.70;2.50;;;17.50;99.90;;;;;;5113480;28;20063;-55
2021/10/26 05:57:20;;;;;;;5.65;3.50;;;17.60;99.90;;;;;;5113374;28;20563;-56
2021/10/26 05:59:48;;;;;;;5.82;3.28;;;17.60;99.90;;;;;;5096515;28;20050;-55
2021/10/26 06:02:15;;;;;;;8.35;3.13;;;17.60;99.90;;;;;;5114375;28;20040;-56
2021/10/26 06:04:43;;;;;;;12.30;3.42;;;17.60;99.90;;;;;;5096378;28;20032;-55
2021/10/26 06:07:10;;;;;;;3.95;2.58;;;17.60;99.90;;;;;;5096184;28;20504;-55
2021/10/26 06:09:38;;;;;;;4.70;2.72;;;17.70;99.90;;;;;;5096190;28;20063;-55
2021/10/26 06:12:09;;;;;;;4.95;2.80;;;17.70;99.90;;;;;;5113073;28;20051;-55
2021/10/26 06:14:36;;;;;;;5.45;3.05;;;17.70;99.90;;;;;;5096290;28;20043;-55
2021/10/26 06:17:04;;;;;;;7.28;2.78;;;17.80;99.90;;;;;;5095826;28;20043;-55
2021/10/26 06:19:34;;;;;;;7.82;3.63;;;17.80;99.90;;;;;;5096536;28;20040;-54
2021/10/26 06:22:03;;;;;;;6.15;3.40;;;17.80;99.90;;;;;;5079673;28;20061;-55
2021/10/26 06:24:32;;;;;;;6.38;3.97;;;17.80;99.90;;;;;;5074165;28;20044;-56
2021/10/26 06:27:00;;;;;;;7.28;4.45;;;17.80;99.90;;;;;;5117158;27;20031;-55
2021/10/26 06:29:30;;;;;;;7.70;3.95;;;17.90;99.90;;;;;;5082464;28;20040;-53
2021/10/26 06:32:16;;;;;;;5.68;3.95;;;17.90;99.90;;;;;;5128583;28;20405;-54
2021/10/26 06:34:51;;;;;;;9.35;3.28;;;17.90;99.90;;;;;;5115815;28;20031;-55
2021/10/26 06:37:20;;;;;;;6.05;3.30;;;17.90;99.90;;;;;;5123795;28;20100;-54
2021/10/26 06:39:49;;;;;;;10.30;4.05;;;18.00;99.90;;;;;;5084024;28;20070;-57
2021/10/26 06:42:17;;;;;;;8.20;4.00;;;18.00;99.90;;;;;;5115691;27;20443;-57
2021/10/26 06:45:04;;;;;;;11.15;4.93;;;18.00;99.90;;;;;;5125232;27;20039;-55
2021/10/26 06:47:51;;;;;;;14.60;6.22;;;18.10;99.90;;;;;;5107462;27;20103;-53
2021/10/26 06:50:41;;;;;;;19.77;7.78;;;18.10;99.90;;;;;;5115062;27;20043;-58
2021/10/26 06:53:44;;;;;;;26.67;9.02;;;18.20;99.90;;;;;;5052742;28;20107;-56
2021/10/26 06:56:38;;;;;;;27.92;9.98;;;18.30;99.90;;;;;;5087203;28;20190;-56
2021/10/26 06:59:28;;;;;;;38.78;10.35;;;18.30;99.90;;;;;;5102257;28;20134;-56
2021/10/26 07:02:21;;;;;;;23.88;10.15;;;18.30;99.90;;;;;;5102147;28;20044;-56
2021/10/26 07:05:18;;;;;;;31.33;8.98;;;18.40;99.90;;;;;;5097146;28;20431;-56
2021/10/26 07:08:06;;;;;;;25.67;8.55;;;18.50;99.90;;;;;;5095942;28;20032;-57
2021/10/26 07:10:35;;;;;;;28.40;8.52;;;18.60;99.90;;;;;;5095330;28;20055;-57
2021/10/26 07:13:12;;;;;;;18.13;7.80;;;18.60;99.90;;;;;;5112190;28;20093;-54
2021/10/26 07:15:40;;;;;;;15.05;7.40;;;18.80;99.90;;;;;;5078637;27;20040;-55
2021/10/26 07:18:08;;;;;;;16.25;7.35;;;19.20;99.90;;;;;;5079033;28;20044;-55
2021/10/26 07:20:36;;;;;;;14.75;5.38;;;19.70;99.90;;;;;;5094448;28;20047;-56
2021/10/26 07:23:25;;;;;;;9.75;4.30;;;20.20;99.90;;;;;;5096920;28;20047;-56
2021/10/26 07:26:12;;;;;;;6.57;2.42;;;20.50;99.90;;;;;;5095802;28;20044;-56
2021/10/26 07:28:41;;;;;;;3.33;2.22;;;20.60;99.90;;;;;;5078914;28;20533;-56
2021/10/26 07:31:09;;;;;;;5.82;2.30;;;20.50;99.90;;;;;;5095828;28;20119;-56
2021/10/26 07:33:37;;;;;;;4.78;1.90;;;20.40;99.90;;;;;;5095610;28;20048;-56
2021/10/26 07:36:08;;;;;;;4.78;2.42;;;20.30;99.90;;;;;;5061460;28;20052;-56
2021/10/26 07:38:41;;;;;;;8.73;3.33;;;20.20;99.90;;;;;;5095684;28;20132;-55
2021/10/26 07:41:09;;;;;;;3.15;2.25;;;20.10;99.90;;;;;;5095575;28;20508;-56
2021/10/26 07:43:45;;;;;;;7.80;3.47;;;20.00;99.90;;;;;;5098304;28;20040;-56
2021/10/26 07:46:32;;;;;;;7.25;2.10;;;19.90;99.90;;;;;;5105242;28;20185;-55
2021/10/26 07:49:03;;;;;;;4.43;2.03;;;19.80;99.90;;;;;;5108373;28;20051;-56
2021/10/26 07:51:31;;;;;;;8.23;2.60;;;19.80;99.90;;;;;;5066119;28;20051;-57
2021/10/26 07:53:59;;;;;;;5.25;2.30;;;19.80;99.90;;;;;;5071500;28;20447;-55
2021/10/26 07:56:27;;;;;;;3.80;2.08;;;19.80;99.90;;;;;;5076580;28;20040;-56
2021/10/26 07:58:56;;;;;;;4.53;2.38;;;19.80;99.90;;;;;;5093999;28;20050;-56
2021/10/26 08:01:24;;;;;;;4.82;2.80;;;19.80;99.90;;;;;;5061546;28;20040;-56
2021/10/26 08:04:11;;;;;;;4.15;2.45;;;19.80;99.90;;;;;;5096395;28;20078;-56
2021/10/26 08:06:46;;;;;;;4.47;2.50;;;19.80;99.90;;;;;;5078949;28;20068;-57
2021/10/26 08:09:14;;;;;;;3.47;2.25;;;19.80;99.90;;;;;;5061184;28;20107;-55
2021/10/26 08:11:43;;;;;;;3.85;2.33;;;19.80;99.90;;;;;;5094799;28;20131;-55
2021/10/26 08:14:11;;;;;;;4.68;2.17;;;19.80;99.90;;;;;;5094840;28;20541;-56
2021/10/26 08:16:40;;;;;;;5.30;3.15;;;19.80;99.90;;;;;;5061463;28;20143;-53
2021/10/26 08:19:08;;;;;;;4.72;2.30;;;19.80;99.90;;;;;;5077785;28;20044;-53
2021/10/26 08:21:39;;;;;;;8.38;2.75;;;19.90;99.90;;;;;;5078415;28;20043;-54
2021/10/26 08:24:08;;;;;;;7.68;3.03;;;19.90;99.90;;;;;;5077918;28;20044;-54
2021/10/26 08:26:42;;;;;;;4.97;2.55;;;19.90;99.90;;;;;;5061743;28;20044;-54
2021/10/26 08:29:31;;;;;;;5.35;2.90;;;20.00;99.90;;;;;;5077874;28;20442;-53
2021/10/26 08:38:04;;;;;;;5.40;2.90;;;20.00;99.90;;;;;;5077669;28;20411;-55
2021/10/26 08:40:47;;;;;;;4.78;2.67;;;20.10;99.90;;;;;;5078357;28;20123;-54
2021/10/26 08:43:22;;;;;;;6.75;2.53;;;20.10;99.90;;;;;;5094231;28;20127;-55
2021/10/26 08:45:52;;;;;;;7.60;2.60;;;20.10;99.90;;;;;;5094565;28;20122;-55
2021/10/26 08:48:24;;;;;;;3.33;2.00;;;20.10;99.60;;;;;;5094103;28;20056;-51
2021/10/26 08:50:59;;;;;;;6.88;2.35;;;20.10;99.50;;;;;;5094311;28;20055;-53
2021/10/26 08:53:39;;;;;;;6.60;3.88;;;20.10;99.50;;;;;;5095621;28;20048;-55
2021/10/26 08:56:06;;;;;;;6.47;2.90;;;20.20;99.50;;;;;;5094642;28;20040;-55
2021/10/26 08:59:07;;;;;;;6.47;2.92;;;20.10;99.10;;;;;;5094021;28;20048;-55
2021/10/26 09:01:51;;;;;;;6.53;3.60;;;20.10;99.20;;;;;;5094228;28;20052;-53
2021/10/26 09:04:19;;;;;;;6.97;3.58;;;20.10;99.20;;;;;;5077107;28;20056;-55
2021/10/26 09:06:51;;;;;;;8.35;3.53;;;20.10;99.00;;;;;;5076267;28;20043;-52
2021/10/26 09:09:24;;;;;;;7.28;3.42;;;20.20;98.90;;;;;;5077453;28;20039;-52
2021/10/26 09:18:12;;;;;;;4.93;2.90;;;20.30;98.40;;;;;;5110667;28;20044;-55
2021/10/26 09:21:03;;;;;;;4.95;2.28;;;20.30;98.10;;;;;;5093566;28;20112;-53
2021/10/26 09:23:47;;;;;;;8.07;2.75;;;20.30;98.00;;;;;;5077726;28;20509;-54
2021/10/26 09:26:17;;;;;;;6.15;2.58;;;20.30;98.10;;;;;;5094564;28;20131;-53
2021/10/26 09:28:52;;;;;;;5.85;2.88;;;20.40;97.60;;;;;;5093430;28;20478;-53
2021/10/26 09:31:30;;;;;;;5.70;3.15;;;20.40;97.70;;;;;;5093641;28;20035;-51
2021/10/26 09:34:12;;;;;;;8.15;3.42;;;20.40;97.10;;;;;;5093643;28;20052;-55
2021/10/26 09:36:42;;;;;;;6.82;3.28;;;20.40;97.10;;;;;;5093111;28;20056;-52
2021/10/26 09:39:13;;;;;;;7.78;3.63;;;20.40;97.10;;;;;;5076045;28;20143;-54
2021/10/26 09:41:56;;;;;;;6.18;3.67;;;20.40;96.80;;;;;;5077279;28;20139;-56
2021/10/26 09:44:30;;;;;;;16.25;3.85;;;20.40;96.80;;;;;;5093114;28;20040;-54
2021/10/26 09:47:05;;;;;;;5.53;2.33;;;20.50;96.80;;;;;;5094291;28;20032;-54
2021/10/26 09:49:38;;;;;;;3.60;2.05;;;20.50;96.40;;;;;;5076184;28;20051;-55
2021/10/26 09:52:18;;;;;;;4.63;2.10;;;20.50;96.20;;;;;;5092949;28;20101;-54
2021/10/26 09:55:05;;;;;;;4.72;1.90;;;20.60;95.70;;;;;;5076275;28;20048;-55
2021/10/26 09:57:34;;;;;;;3.42;2.10;;;20.60;95.50;;;;;;5093997;28;20044;-56
2021/10/26 10:00:07;;;;;;;5.57;1.95;;;20.60;95.40;;;;;;5076499;28;20394;-55
2021/10/26 10:02:41;;;;;;;5.20;1.95;;;20.60;95.00;;;;;;5094298;28;20048;-54
2021/10/26 10:05:21;;;;;;;4.35;2.22;;;20.60;94.80;;;;;;5092909;28;20048;-54
2021/10/26 10:07:52;;;;;;;4.85;2.60;;;20.60;95.00;;;;;;5076692;28;20044;-55
2021/10/26 10:10:19;;;;;;;5.70;3.03;;;20.60;95.00;;;;;;5092603;28;20049;-56
2021/10/26 10:13:03;;;;;;;4.82;2.58;;;20.60;95.30;;;;;;5092826;28;20150;-56
2021/10/26 10:15:31;;;;;;;5.65;2.30;;;20.60;95.60;;;;;;5093812;28;20047;-54
2021/10/26 10:18:03;;;;;;;5.97;2.85;;;20.70;96.10;;;;;;5075593;28;20089;-55
2021/10/26 10:20:32;;;;;;;3.45;1.85;;;20.70;96.00;;;;;;5075761;28;20052;-53
2021/10/26 10:23:00;;;;;;;6.38;2.95;;;20.70;96.10;;;;;;5075863;28;20135;-53
2021/10/26 10:25:29;;;;;;;5.43;2.50;;;20.70;95.80;;;;;;5092647;28;20058;-55
2021/10/26 10:28:01;;;;;;;4.63;2.38;;;20.70;95.50;;;;;;5093683;28;20086;-55
2021/10/26 10:30:30;;;;;;;4.60;2.83;;;20.80;95.60;;;;;;5092484;28;20064;-55
2021/10/26 10:32:58;;;;;;;7.20;2.35;;;20.80;95.40;;;;;;5092415;28;20056;-55
2021/10/26 10:35:28;;;;;;;3.47;2.50;;;20.80;95.20;;;;;;5075212;28;20052;-54
2021/10/26 10:38:00;;;;;;;3.45;2.05;;;20.80;95.00;;;;;;5092248;28;20064;-56
2021/10/26 10:40:31;;;;;;;5.45;2.15;;;20.80;95.00;;;;;;5075752;28;20048;-54
2021/10/26 10:43:00;;;;;;;3.53;1.83;;;20.80;94.70;;;;;;5075439;28;20040;-54
2021/10/26 10:45:40;;;;;;;5.90;2.90;;;20.80;94.70;;;;;;5090949;28;20686;-53
2021/10/26 10:48:26;;;;;;;5.13;2.10;;;20.80;95.20;;;;;;5090816;28;20036;-53
2021/10/26 10:51:09;;;;;;;9.90;3.50;;;20.90;96.30;;;;;;5090946;28;20135;-53
2021/10/26 10:53:38;;;;;;;4.25;2.30;;;20.90;96.90;;;;;;5090949;28;20067;-54
2021/10/26 10:56:20;;;;;;;6.47;2.50;;;21.10;96.80;;;;;;5074109;28;20143;-53
2021/10/26 10:58:49;;;;;;;8.93;2.90;;;21.20;96.30;;;;;;5091024;28;20052;-54
2021/10/26 11:01:33;;;;;;;3.38;1.58;;;21.40;96.00;;;;;;5057607;28;20040;-54
2021/10/26 11:04:21;;;;;;;10.20;2.50;;;21.50;95.30;;;;;;5092221;28;20405;-54
2021/10/26 11:06:53;;;;;;;4.60;2.30;;;21.70;95.10;;;;;;5090657;28;20032;-55
2021/10/26 11:09:37;;;;;;;6.85;2.17;;;21.80;94.50;;;;;;5057470;28;20066;-54
2021/10/26 11:12:17;;;;;;;3.38;2.38;;;21.90;94.10;;;;;;5090628;28;20490;-56
2021/10/26 11:14:47;;;;;;;4.35;2.03;;;21.70;94.00;;;;;;5091903;28;20040;-54
2021/10/26 11:17:36;;;;;;;4.70;2.00;;;21.60;93.70;;;;;;5073548;28;20040;-54
2021/10/26 11:20:26;;;;;;;6.15;2.33;;;21.50;93.40;;;;;;5090692;28;20044;-53
2021/10/26 11:23:02;;;;;;;2.70;2.00;;;21.50;94.10;;;;;;5090494;28;20159;-53
2021/10/26 11:25:36;;;;;;;3.78;1.80;;;21.40;93.80;;;;;;5091517;28;20063;-52
2021/10/26 11:28:15;;;;;;;5.03;2.60;;;21.30;94.00;;;;;;5074188;28;20044;-55
2021/10/26 11:30:42;;;;;;;3.25;1.63;;;21.30;93.40;;;;;;5061317;28;20509;-53
2021/10/26 11:33:17;;;;;;;3.45;1.35;;;21.20;92.40;;;;;;5094326;28;20085;-53
2021/10/26 11:35:51;;;;;;;6.53;2.35;;;21.10;92.00;;;;;;5061214;28;20058;-53
2021/10/26 11:38:23;;;;;;;3.55;2.42;;;21.10;92.20;;;;;;5094274;28;20041;-54
2021/10/26 11:40:54;;;;;;;4.38;2.28;;;21.00;92.50;;;;;;5077494;28;20062;-51
2021/10/26 11:43:22;;;;;;;4.68;2.42;;;21.00;92.70;;;;;;5094129;28;20048;-55
2021/10/26 11:46:12;;;;;;;2.90;1.77;;;21.00;93.00;;;;;;5079882;28;20044;-54
2021/10/26 11:48:59;;;;;;;4.85;1.40;;;20.90;92.10;;;;;;5094368;28;20124;-55
2021/10/26 11:51:30;;;;;;;;;;;20.90;92.20;;;;;;5094370;28;20048;-54
2021/10/26 11:54:02;;;;;;;4.53;1.80;;;20.80;92.10;;;;;;5094025;28;19927;-53
2021/10/26 11:56:38;;;;;;;2.58;1.35;;;20.90;92.50;;;;;;5095080;28;20113;-54
2021/10/26 11:59:34;;;;;;;4.93;2.22;;;20.80;92.90;;;;;;5093575;28;20056;-53
2021/10/26 12:02:20;;;;;;;4.65;1.55;;;20.80;93.40;;;;;;5094792;28;20074;-56
2021/10/26 12:04:57;;;;;;;3.63;2.03;;;20.70;93.30;;;;;;5093611;28;20120;-54
2021/10/26 12:07:28;;;;;;;3.75;1.83;;;20.80;94.30;;;;;;5093623;28;20051;-55
2021/10/26 12:09:59;;;;;;;5.28;1.75;;;20.80;93.00;;;;;;5093874;28;20052;-55
2021/10/26 12:12:31;;;;;;;3.00;1.60;;;20.80;92.80;;;;;;5093847;28;20451;-51
2021/10/26 12:15:07;;;;;;;4.80;1.95;;;20.90;92.60;;;;;;5079391;28;20044;-56
2021/10/26 12:17:42;;;;;;;4.28;2.60;;;20.90;92.50;;;;;;5109428;27;20042;-55
2021/10/26 12:20:18;;;;;;;2.25;1.50;;;20.90;92.80;;;;;;5127388;27;20089;-55
2021/10/26 12:23:06;;;;;;;5.68;1.98;;;20.90;91.90;;;;;;5124462;27;20514;-53
2021/10/26 12:25:47;;;;;;;6.78;2.72;;;20.80;91.70;;;;;;5092951;27;20131;-53
2021/10/26 12:28:19;;;;;;;3.30;1.98;;;20.80;91.80;;;;;;5097838;27;20035;-54
2021/10/26 12:30:47;;;;;;;4.40;1.80;;;20.80;91.90;;;;;;5087612;27;20047;-52
2021/10/26 12:33:28;;;;;;;3.08;1.92;;;20.70;91.70;;;;;;5108715;28;20048;-52
2021/10/26 12:36:05;;;;;;;5.63;2.58;;;20.60;91.70;;;;;;5124865;27;20047;-55
2021/10/26 12:38:40;;;;;;;4.03;1.65;;;20.60;92.00;;;;;;5114827;27;20047;-53
2021/10/26 12:41:19;;;;;;;4.50;2.42;;;20.60;92.20;;;;;;5095206;27;20078;-53
2021/10/26 12:44:28;;;;;;;3.78;2.17;;;20.50;92.20;;;;;;5125325;27;20062;-51
2021/10/26 12:47:03;;;;;;;2.92;1.83;;;20.50;91.80;;;;;;5115834;27;20040;-49
2021/10/26 12:49:38;;;;;;;6.13;2.58;;;20.50;91.80;;;;;;5105062;28;20501;-48
2021/10/26 12:52:13;;;;;;;5.15;1.83;;;20.40;91.80;;;;;;5115308;27;20122;-50
2021/10/26 12:54:47;;;;;;;5.43;2.60;;;20.50;91.80;;;;;;5118568;27;20493;-52
2021/10/26 12:57:14;;;;;;;4.03;2.03;;;20.50;92.00;;;;;;5131663;27;20047;-53
2021/10/26 12:59:42;;;;;;;4.15;2.35;;;20.50;92.30;;;;;;5120242;27;20485;-49
2021/10/26 13:02:10;;;;;;;6.60;2.47;;;20.40;92.70;;;;;;5097815;28;20044;-51
2021/10/26 13:04:41;;;;;;;2.75;1.50;;;20.50;92.90;;;;;;5111850;27;20094;-49
2021/10/26 13:07:12;;;;;;;3.28;1.75;;;20.50;93.00;;;;;;5111392;27;20031;-51
2021/10/26 13:09:49;;;;;;;4.22;1.70;;;20.50;93.20;;;;;;5113724;27;20039;-52
2021/10/26 13:12:26;;;;;;;4.53;1.92;;;20.50;93.20;;;;;;5111844;27;20105;-52
2021/10/26 13:15:08;;;;;;;5.97;1.70;;;20.50;93.00;;;;;;5125115;27;20327;-52
2021/10/26 13:17:49;;;;;;;2.53;1.58;;;20.40;93.50;;;;;;5125495;27;20137;-55
2021/10/26 13:20:33;;;;;;;7.28;2.00;;;20.30;93.60;;;;;;5113419;27;20039;-54
2021/10/26 13:23:09;;;;;;;3.10;1.60;;;20.30;93.80;;;;;;5105739;27;20565;-53
2021/10/26 13:25:43;;;;;;;;;;;20.20;93.40;;;;;;5114938;27;20161;-50
2021/10/26 13:28:13;;;;;;;3.95;2.40;;;20.30;94.00;;;;;;5106262;27;19919;-49
2021/10/26 13:30:47;;;;;;;8.15;2.80;;;20.20;93.30;;;;;;5093058;28;20094;-48